createdAt,value
2023-04-08T00:00:55.972Z,9.83
2023-04-08T00:05:44.271Z,10.03
2023-04-08T00:10:34.538Z,10.23
2023-04-08T00:15:20.121Z,9.60
2023-04-08T00:20:56.118Z,10.13
2023-04-08T00:32:06.509Z,10.30
2023-04-08T00:37:25.598Z,9.43
2023-04-08T00:42:45.773Z,9.40
2023-04-08T01:06:51.414Z,8.80
2023-04-08T01:18:27.803Z,8.80
2023-04-08T01:23:35.326Z,8.50
2023-04-08T01:28:26.225Z,8.73
2023-04-08T01:33:12.576Z,7.93
2023-04-08T01:38:00.421Z,8.33
2023-04-08T01:42:48.867Z,7.50
2023-04-08T01:47:38.423Z,6.83
2023-04-08T01:52:23.924Z,7.60
2023-04-08T01:57:13.729Z,8.00
2023-04-08T02:01:58.695Z,7.57
2023-04-08T02:06:49.103Z,7.33
2023-04-08T02:11:34.420Z,7.27
2023-04-08T02:16:26.074Z,7.03
2023-04-08T02:21:16.320Z,6.90
2023-04-08T02:26:03.200Z,6.77
2023-04-08T02:30:51.264Z,6.40
2023-04-08T02:35:35.210Z,5.60
2023-04-08T02:40:26.899Z,4.97
2023-04-08T02:45:12.191Z,4.70
2023-04-08T02:50:01.855Z,4.93
2023-04-08T02:54:47.126Z,5.10
2023-04-08T02:59:37.907Z,5.47
2023-04-08T03:04:23.400Z,4.77
2023-04-08T03:09:11.834Z,5.10
2023-04-08T03:13:58.529Z,5.50
2023-04-08T03:18:46.369Z,5.20
2023-04-08T03:23:37.322Z,4.37
2023-04-08T03:28:21.936Z,4.13
2023-04-08T03:33:11.933Z,3.83
2023-04-08T03:38:02.529Z,3.57
2023-04-08T03:42:47.855Z,3.63
2023-04-08T03:47:35.843Z,3.53
2023-04-08T03:52:22.688Z,3.50
2023-04-08T03:57:10.115Z,3.23
2023-04-08T04:01:58.382Z,4.07
2023-04-08T04:06:47.293Z,4.87
2023-04-08T04:11:37.113Z,5.50
2023-04-08T04:16:22.764Z,5.67
2023-04-08T04:21:43.097Z,4.80
2023-04-08T04:26:30.097Z,4.40
2023-04-08T04:31:38.911Z,7.43
2023-04-08T04:36:23.957Z,6.57
2023-04-08T04:41:11.278Z,8.40
2023-04-08T04:45:58.038Z,15.57
2023-04-08T04:51:04.263Z,13.87
2023-04-08T04:55:51.763Z,11.90
2023-04-08T05:00:40.177Z,11.93
2023-04-08T05:05:27.133Z,17.30
2023-04-08T05:10:14.002Z,15.10
2023-04-08T05:15:24.417Z,15.10
2023-04-08T05:20:09.289Z,21.50
2023-04-08T05:24:56.058Z,6.33
2023-04-08T05:29:44.612Z,6.37
2023-04-08T05:34:36.392Z,12.90
2023-04-08T05:39:20.446Z,9.23
2023-04-08T05:44:07.384Z,7.97
2023-04-08T05:48:54.298Z,8.87
2023-04-08T05:53:47.686Z,10.23
2023-04-08T05:58:31.507Z,9.57
2023-04-08T06:03:20.701Z,12.53
2023-04-08T06:08:10.150Z,11.00
2023-04-08T06:12:57.081Z,10.50
2023-04-08T06:17:42.359Z,8.77
2023-04-08T06:22:31.990Z,12.43
2023-04-08T06:27:21.383Z,11.30
2023-04-08T06:32:09.769Z,10.60
2023-04-08T06:36:56.744Z,17.23
2023-04-08T06:41:42.280Z,14.07
2023-04-08T06:46:48.387Z,13.80
2023-04-08T06:51:37.036Z,17.43
2023-04-08T06:56:23.712Z,12.43
2023-04-08T07:06:17.345Z,16.50
2023-04-08T07:11:05.320Z,13.93
2023-04-08T07:16:09.144Z,15.47
2023-04-08T07:20:55.023Z,14.50
2023-04-08T07:25:42.533Z,16.27
2023-04-08T07:30:33.047Z,13.97
2023-04-08T07:35:24.861Z,14.23
2023-04-08T07:40:12.528Z,15.37
2023-04-08T07:44:56.548Z,14.07
2023-04-08T07:49:42.537Z,13.10
2023-04-08T07:54:51.069Z,13.73
2023-04-08T07:59:36.959Z,12.17
2023-04-08T08:04:25.805Z,13.57
2023-04-08T08:09:10.863Z,8.67
2023-04-08T08:13:58.191Z,7.00
2023-04-08T08:18:50.884Z,5.97
2023-04-08T08:23:34.500Z,5.90
2023-04-08T08:28:25.505Z,4.90
2023-04-08T08:33:10.359Z,5.27
2023-04-08T08:37:59.866Z,5.67
2023-04-08T08:42:52.352Z,5.40
2023-04-08T08:47:37.825Z,4.60
2023-04-08T08:52:24.000Z,4.90
2023-04-08T08:57:26.154Z,5.80
2023-04-08T09:02:32.184Z,5.10
2023-04-08T09:07:25.649Z,6.10
2023-04-08T09:12:20.869Z,6.10
2023-04-08T09:17:13.245Z,6.80
2023-04-08T09:22:18.452Z,7.20
2023-04-08T09:27:03.387Z,7.20
2023-04-08T09:31:57.728Z,7.57
2023-04-08T09:36:57.347Z,7.00
2023-04-08T09:41:44.924Z,7.03
2023-04-08T09:46:45.654Z,7.00
2023-04-08T09:51:51.883Z,7.63
2023-04-08T09:56:44.947Z,6.53
2023-04-08T10:02:01.554Z,8.20
2023-04-08T10:07:04.148Z,8.23
2023-04-08T10:12:13.123Z,7.37
2023-04-08T10:17:43.596Z,7.23
2023-04-08T10:22:52.093Z,7.33
2023-04-08T10:27:47.938Z,9.00
2023-04-08T10:32:58.262Z,8.53
2023-04-08T10:37:46.246Z,7.60
2023-04-08T10:42:45.172Z,8.27
2023-04-08T10:47:40.226Z,7.87
2023-04-08T10:52:24.417Z,8.23
2023-04-08T10:57:13.600Z,7.60
2023-04-08T11:02:01.801Z,7.33
2023-04-08T11:06:46.911Z,7.30
2023-04-08T11:11:36.028Z,6.60
2023-04-08T11:16:24.331Z,7.77
2023-04-08T11:21:14.437Z,7.30
2023-04-08T11:25:59.022Z,7.00
2023-04-08T11:30:48.564Z,7.57
2023-04-08T11:35:36.038Z,7.20
2023-04-08T11:40:24.595Z,9.80
2023-04-08T11:45:16.313Z,10.50
2023-04-08T11:50:00.346Z,11.00
2023-04-08T11:54:50.275Z,10.53
2023-04-08T11:59:51.778Z,11.13
2023-04-08T12:04:39.475Z,12.97
2023-04-08T12:09:27.384Z,12.73
2023-04-08T12:14:15.639Z,12.77
2023-04-08T12:19:02.120Z,12.07
2023-04-08T12:23:55.047Z,12.43
2023-04-08T12:28:38.620Z,12.57
2023-04-08T12:33:27.733Z,13.70
2023-04-08T12:38:16.111Z,14.37
2023-04-08T12:43:02.333Z,14.13
2023-04-08T12:47:55.062Z,13.30
2023-04-08T12:52:40.068Z,14.10
2023-04-08T12:57:27.453Z,15.43
2023-04-08T13:02:20.001Z,14.13
2023-04-08T13:07:07.535Z,15.13
2023-04-08T13:11:52.944Z,15.07
2023-04-08T13:16:38.600Z,15.80
2023-04-08T13:21:28.691Z,16.47
2023-04-08T13:26:29.465Z,16.73
2023-04-08T13:31:22.797Z,15.87
2023-04-08T13:36:07.129Z,16.40
2023-04-08T13:41:01.483Z,15.73
2023-04-08T13:46:00.298Z,15.27
2023-04-08T13:50:48.185Z,15.33
2023-04-08T13:55:35.543Z,15.27
2023-04-08T14:00:35.865Z,13.10
2023-04-08T14:05:28.278Z,13.57
2023-04-08T14:10:17.503Z,13.20
2023-04-08T14:15:06.963Z,13.37
2023-04-08T14:19:51.136Z,11.90
2023-04-08T14:24:43.992Z,11.53
2023-04-08T14:29:42.074Z,11.20
2023-04-08T14:34:31.770Z,11.60
2023-04-08T14:39:20.890Z,11.03
2023-04-08T14:44:06.447Z,10.43
2023-04-08T14:48:58.870Z,10.07
2023-04-08T14:53:42.521Z,11.77
2023-04-08T14:58:31.621Z,11.27
2023-04-08T15:03:19.997Z,11.27
2023-04-08T15:08:28.435Z,10.57
2023-04-08T15:13:11.983Z,10.40
2023-04-08T15:17:59.379Z,9.60
2023-04-08T15:22:49.289Z,9.13
2023-04-08T15:27:36.287Z,9.97
2023-04-08T15:32:23.082Z,9.17
2023-04-08T15:37:13.912Z,9.33
2023-04-08T15:41:59.369Z,9.80
2023-04-08T15:46:47.860Z,11.17
2023-04-08T15:51:34.663Z,11.17
2023-04-08T15:56:25.209Z,10.57
2023-04-08T16:01:13.860Z,11.13
2023-04-08T16:06:01.346Z,11.73
2023-04-08T16:10:47.148Z,12.03
2023-04-08T16:15:36.494Z,14.30
2023-04-08T16:20:23.640Z,14.47
2023-04-08T16:25:12.166Z,13.47
2023-04-08T16:29:59.590Z,12.90
2023-04-08T16:34:46.260Z,12.90
2023-04-08T16:39:39.126Z,12.47
2023-04-08T16:44:24.072Z,13.40
2023-04-08T16:49:14.051Z,12.07
2023-04-08T16:53:59.787Z,12.20
2023-04-08T16:58:49.610Z,12.63
2023-04-08T17:03:36.378Z,12.97
2023-04-08T17:08:28.157Z,11.80
2023-04-08T17:13:14.204Z,11.87
2023-04-08T17:17:58.893Z,12.90
2023-04-08T17:22:47.703Z,12.50
2023-04-08T17:27:34.889Z,12.77
2023-04-08T17:32:44.147Z,12.33
2023-04-08T17:37:28.824Z,12.90
2023-04-08T17:42:17.360Z,11.97
2023-04-08T17:47:05.207Z,12.63
2023-04-08T17:51:52.830Z,12.93
2023-04-08T17:56:38.835Z,13.40
2023-04-08T18:01:48.790Z,13.57
2023-04-08T18:06:33.076Z,12.90
2023-04-08T18:11:18.723Z,14.33
2023-04-08T18:16:27.349Z,13.07
2023-04-08T18:21:12.966Z,13.70
2023-04-08T18:25:59.111Z,13.10
2023-04-08T18:30:46.945Z,13.10
2023-04-08T18:35:36.931Z,12.83
2023-04-08T18:40:22.720Z,13.93
2023-04-08T18:45:15.486Z,13.70
2023-04-08T18:49:58.965Z,14.13
2023-04-08T18:54:49.066Z,12.77
2023-04-08T18:59:35.386Z,13.00
2023-04-08T19:04:22.973Z,13.83
2023-04-08T19:09:15.870Z,14.37
2023-04-08T19:13:59.723Z,14.37
2023-04-08T19:18:48.015Z,13.33
2023-04-08T19:23:35.592Z,14.10
2023-04-08T19:28:22.512Z,15.40
2023-04-08T19:33:12.602Z,13.97
2023-04-08T19:38:00.909Z,15.13
2023-04-08T19:42:49.986Z,14.37
2023-04-08T19:47:36.869Z,16.07
2023-04-08T19:52:22.425Z,15.03
2023-04-08T19:57:17.165Z,17.07
2023-04-08T20:02:00.772Z,16.17
2023-04-08T20:06:46.093Z,16.13
2023-04-08T20:11:55.345Z,17.80
2023-04-08T20:16:40.411Z,18.20
2023-04-08T20:21:28.789Z,17.27
2023-04-08T20:26:15.711Z,17.43
2023-04-08T20:31:03.133Z,18.40
2023-04-08T20:35:53.364Z,16.87
2023-04-08T20:40:43.906Z,18.87
2023-04-08T20:45:28.350Z,17.83
2023-04-08T20:50:18.093Z,20.20
2023-04-08T20:55:03.153Z,19.03
2023-04-08T20:59:51.723Z,18.87
2023-04-08T21:04:38.477Z,18.77
2023-04-08T21:09:31.616Z,19.40
2023-04-08T21:14:16.636Z,19.07
2023-04-08T21:19:04.179Z,19.07
2023-04-08T21:23:50.798Z,18.80
2023-04-08T21:28:40.876Z,19.70
2023-04-08T21:33:29.325Z,19.53
2023-04-08T21:38:16.849Z,17.77
2023-04-08T21:43:03.532Z,20.13
2023-04-08T21:47:53.443Z,19.80
2023-04-08T21:52:38.692Z,18.37
2023-04-08T21:57:31.942Z,21.97
2023-04-08T22:02:16.032Z,20.10
2023-04-08T22:07:02.707Z,20.30
2023-04-08T22:11:56.945Z,23.00
2023-04-08T22:16:40.578Z,21.47
2023-04-08T22:21:27.686Z,21.50
2023-04-08T22:26:16.019Z,24.37
2023-04-08T22:31:03.451Z,30.67
2023-04-08T22:35:50.913Z,48.13
2023-04-08T22:40:59.847Z,40.73
2023-04-08T22:45:43.599Z,28.20
2023-04-08T22:50:31.607Z,27.93
2023-04-08T22:55:21.413Z,26.13
2023-04-08T23:00:07.998Z,24.70
2023-04-08T23:04:56.118Z,25.43
2023-04-08T23:09:44.343Z,25.33
2023-04-08T23:14:31.976Z,22.60
2023-04-08T23:19:19.987Z,24.07
2023-04-08T23:24:08.097Z,22.63
2023-04-08T23:28:57.367Z,28.03
2023-04-08T23:33:42.771Z,27.30
2023-04-08T23:38:32.541Z,25.60
2023-04-08T23:43:19.876Z,25.10
2023-04-08T23:48:10.037Z,23.93
2023-04-08T23:52:56.939Z,22.53
2023-04-08T23:57:43.582Z,22.13
